Terminal Aerodrome Forecast
Issued by NWS

Home | Current Version | Previous Version | Text Only | Print | Product List | Glossary On
Versions: 1 2 3 4 5 6 7 8 9 10 11 12
340
FTUS41 KPBZ 272335
TAFBVI
TAF
KBVI 272335Z 2800/2824 00000KT P6SM SCT080
     FM281900 19005KT P6SM BKN060
      AMD NOT SKED 2802/2812=

USA.gov is the U.S. government's official web portal to all federal, state and local government web resources and services.